createdAt,value
2018-02-02T00:00:34.437Z,3.28
2018-02-02T00:01:33.914Z,3.29
2018-02-02T00:02:34.128Z,3.32
2018-02-02T00:03:34.343Z,3.28
2018-02-02T00:04:34.315Z,3.29
2018-02-02T00:05:34.281Z,3.32
2018-02-02T00:06:34.006Z,3.29
2018-02-02T00:07:34.223Z,3.28
2018-02-02T00:08:34.198Z,3.42
2018-02-02T00:09:34.173Z,3.42
2018-02-02T00:10:34.134Z,3.44
2018-02-02T00:11:34.104Z,3.45
2018-02-02T00:12:34.072Z,3.4
2018-02-02T00:13:33.800Z,3.34
2018-02-02T00:14:34.017Z,3.4
2018-02-02T00:15:33.982Z,3.47
2018-02-02T00:16:33.708Z,3.45
2018-02-02T00:17:33.929Z,3.47
2018-02-02T00:18:33.906Z,3.47
2018-02-02T00:19:33.869Z,3.45
2018-02-02T00:20:33.835Z,3.45
2018-02-02T00:21:33.805Z,3.53
2018-02-02T00:22:33.530Z,3.44
2018-02-02T00:23:33.754Z,3.58
2018-02-02T00:24:33.475Z,3.62
2018-02-02T00:25:33.690Z,3.62
2018-02-02T00:26:33.659Z,3.58
2018-02-02T00:27:33.645Z,3.63
2018-02-02T00:28:33.608Z,3.56
2018-02-02T00:29:33.578Z,3.56
2018-02-02T00:30:33.542Z,3.62
2018-02-02T00:31:33.513Z,3.53
2018-02-02T00:32:33.237Z,3.62
2018-02-02T00:33:33.214Z,3.51
2018-02-02T00:34:33.422Z,3.58
2018-02-02T00:35:32.903Z,3.5
2018-02-02T00:36:33.362Z,3.5
2018-02-02T00:37:33.333Z,3.53
2018-02-02T00:38:33.057Z,3.58
2018-02-02T00:39:33.273Z,3.5
2018-02-02T00:40:32.999Z,3.45
2018-02-02T00:41:33.214Z,3.5
2018-02-02T00:42:33.185Z,3.47
2018-02-02T00:43:33.155Z,3.47
2018-02-02T00:44:32.632Z,3.45
2018-02-02T00:45:33.096Z,3.45
2018-02-02T00:46:33.065Z,3.47
2018-02-02T00:47:32.788Z,3.58
2018-02-02T00:48:33.001Z,3.5
2018-02-02T00:49:32.729Z,3.53
2018-02-02T00:50:32.954Z,3.55
2018-02-02T00:51:32.672Z,3.58
2018-02-02T00:52:32.642Z,3.48
2018-02-02T00:53:32.860Z,3.51
2018-02-02T00:54:32.883Z,3.63
2018-02-02T00:55:32.800Z,3.6
2018-02-02T00:56:32.767Z,3.55
2018-02-02T00:57:32.740Z,3.6
2018-02-02T00:58:32.713Z,3.65
2018-02-02T00:59:32.685Z,3.65
2018-02-02T01:00:32.652Z,3.6
2018-02-02T01:01:32.621Z,3.58
2018-02-02T01:02:32.594Z,3.65
2018-02-02T01:03:32.567Z,3.58
2018-02-02T01:04:32.535Z,3.62
2018-02-02T01:05:32.502Z,3.58
2018-02-02T01:06:32.231Z,3.6
2018-02-02T01:07:32.209Z,3.62
2018-02-02T01:08:32.421Z,3.63
2018-02-02T01:09:32.146Z,3.58
2018-02-02T01:10:32.367Z,3.66
2018-02-02T01:11:31.833Z,3.65
2018-02-02T01:12:32.295Z,3.63
2018-02-02T01:13:32.267Z,3.6
2018-02-02T01:14:31.996Z,3.56
2018-02-02T01:15:32.213Z,3.65
2018-02-02T01:16:32.175Z,3.63
2018-02-02T01:17:32.154Z,3.65
2018-02-02T01:18:32.122Z,3.58
2018-02-02T01:19:32.091Z,3.62
2018-02-02T01:20:32.058Z,3.6
2018-02-02T01:21:32.030Z,3.66
2018-02-02T01:22:32.001Z,3.6
2018-02-02T01:23:31.971Z,3.63
2018-02-02T01:24:31.939Z,3.55
2018-02-02T01:25:31.913Z,3.63
2018-02-02T01:26:31.638Z,3.62
2018-02-02T01:27:31.861Z,3.65
2018-02-02T01:28:31.822Z,3.63
2018-02-02T01:29:31.797Z,3.62
2018-02-02T01:30:31.771Z,3.63
2018-02-02T01:31:31.742Z,3.62
2018-02-02T01:32:31.705Z,3.55
2018-02-02T01:33:31.430Z,3.6
2018-02-02T01:34:31.402Z,3.59
2018-02-02T01:35:31.619Z,3.59
2018-02-02T01:36:31.346Z,3.62
2018-02-02T01:37:31.560Z,3.65
2018-02-02T01:38:31.531Z,3.62
2018-02-02T01:39:31.256Z,3.62
2018-02-02T01:40:31.223Z,3.65
2018-02-02T01:41:31.196Z,3.62
2018-02-02T01:42:31.414Z,3.58
2018-02-02T01:43:31.387Z,3.63
2018-02-02T01:44:31.353Z,3.65
2018-02-02T01:45:31.324Z,3.68
2018-02-02T01:46:31.050Z,3.69
2018-02-02T01:47:31.015Z,3.62
2018-02-02T01:48:31.257Z,3.69
2018-02-02T01:49:31.215Z,3.69
2018-02-02T01:50:30.937Z,3.66
2018-02-02T01:51:30.652Z,3.69
2018-02-02T01:52:31.118Z,3.73
2018-02-02T01:53:30.842Z,3.74
2018-02-02T01:54:31.056Z,3.76
2018-02-02T01:55:30.780Z,3.73
2018-02-02T01:56:30.996Z,3.74
2018-02-02T01:57:30.974Z,3.77
2018-02-02T01:58:30.936Z,3.7
2018-02-02T01:59:30.908Z,3.74
2018-02-02T02:00:30.884Z,3.76
2018-02-02T02:01:30.850Z,3.77
2018-02-02T02:02:30.830Z,3.76
2018-02-02T02:03:30.543Z,3.81
2018-02-02T02:04:30.762Z,3.73
2018-02-02T02:05:30.738Z,3.77
2018-02-02T02:06:30.699Z,3.78
2018-02-02T02:07:30.184Z,3.73
2018-02-02T02:08:30.397Z,3.69
2018-02-02T02:09:30.616Z,3.78
2018-02-02T02:10:30.583Z,3.77
2018-02-02T02:11:30.555Z,3.78
2018-02-02T02:12:30.523Z,3.74
2018-02-02T02:13:30.498Z,3.78
2018-02-02T02:14:30.220Z,3.7
2018-02-02T02:15:30.236Z,3.8
2018-02-02T02:16:30.163Z,3.74
2018-02-02T02:17:30.383Z,3.74
2018-02-02T02:18:30.347Z,3.8
2018-02-02T02:19:30.073Z,3.73
2018-02-02T02:20:30.290Z,3.78
2018-02-02T02:21:30.017Z,3.81
2018-02-02T02:22:30.235Z,3.76
2018-02-02T02:23:30.202Z,3.74
2018-02-02T02:24:30.180Z,3.8
2018-02-02T02:25:30.144Z,3.78
2018-02-02T02:26:30.122Z,3.76
2018-02-02T02:27:30.091Z,3.77
2018-02-02T02:28:30.057Z,3.74
2018-02-02T02:29:29.784Z,3.76
2018-02-02T02:30:29.999Z,3.77
2018-02-02T02:31:29.971Z,3.77
2018-02-02T02:32:29.449Z,3.88
2018-02-02T02:33:29.906Z,3.76
2018-02-02T02:34:29.949Z,3.81
2018-02-02T02:35:29.858Z,3.84
2018-02-02T02:36:29.826Z,3.8
2018-02-02T02:37:29.794Z,3.78
2018-02-02T02:38:29.271Z,3.77
2018-02-02T02:39:29.489Z,3.81
2018-02-02T02:40:29.716Z,3.74
2018-02-02T02:41:29.687Z,3.73
2018-02-02T02:42:29.652Z,3.77
2018-02-02T02:43:29.376Z,3.73
2018-02-02T02:44:29.342Z,3.73
2018-02-02T02:45:29.308Z,3.7
2018-02-02T02:46:29.528Z,3.78
2018-02-02T02:47:29.542Z,3.74
2018-02-02T02:48:29.467Z,3.8
2018-02-02T02:49:29.194Z,3.78
2018-02-02T02:50:29.412Z,3.7
2018-02-02T02:51:29.446Z,3.76
2018-02-02T02:52:29.348Z,3.77
2018-02-02T02:53:29.079Z,3.77
2018-02-02T02:54:29.297Z,3.74
2018-02-02T02:55:29.023Z,3.77
2018-02-02T02:56:29.237Z,3.76
2018-02-02T02:57:28.967Z,3.81
2018-02-02T02:58:29.184Z,3.76
2018-02-02T02:59:29.156Z,3.74
2018-02-02T03:00:29.016Z,3.83
2018-02-02T03:01:29.081Z,3.77
2018-02-02T03:02:29.106Z,3.8
2018-02-02T03:03:29.028Z,3.68
2018-02-02T03:04:28.750Z,3.74
2018-02-02T03:05:28.968Z,3.74
2018-02-02T03:06:28.691Z,3.66
2018-02-02T03:07:28.916Z,3.66
2018-02-02T03:08:28.878Z,3.73
2018-02-02T03:09:28.851Z,3.55
2018-02-02T03:10:28.821Z,3.63
2018-02-02T03:11:28.792Z,3.58
2018-02-02T03:12:28.518Z,3.48
2018-02-02T03:13:28.238Z,3.42
2018-02-02T03:14:28.455Z,3.37
2018-02-02T03:15:28.673Z,3.26
2018-02-02T03:16:28.396Z,3.28
2018-02-02T03:17:28.371Z,3.22
2018-02-02T03:18:28.641Z,3.1
2018-02-02T03:19:28.555Z,2.98
2018-02-02T03:20:28.528Z,2.95
2018-02-02T03:21:28.491Z,2.9
2018-02-02T03:22:28.469Z,2.77
2018-02-02T03:23:28.432Z,2.77
2018-02-02T03:24:28.410Z,2.71
2018-02-02T03:25:27.884Z,2.67
2018-02-02T03:26:28.348Z,2.57
2018-02-02T03:27:28.067Z,2.43
2018-02-02T03:28:28.037Z,2.47
2018-02-02T03:29:28.256Z,2.44
2018-02-02T03:30:28.229Z,2.39
2018-02-02T03:31:28.198Z,2.36
2018-02-02T03:32:28.164Z,2.31
2018-02-02T03:33:28.236Z,2.31
2018-02-02T03:34:28.104Z,2.31
2018-02-02T03:35:27.828Z,2.26
2018-02-02T03:36:28.044Z,2.28
2018-02-02T03:37:28.016Z,2.24
2018-02-02T03:38:27.979Z,2.26
2018-02-02T03:39:27.951Z,2.24
2018-02-02T03:40:27.924Z,2.25
2018-02-02T03:41:27.645Z,2.18
2018-02-02T03:42:27.858Z,2.29
2018-02-02T03:43:27.839Z,2.24
2018-02-02T03:44:27.805Z,2.29
2018-02-02T03:45:27.771Z,2.22
2018-02-02T03:46:27.736Z,2.24
2018-02-02T03:47:27.714Z,2.26
2018-02-02T03:48:27.433Z,2.17
2018-02-02T03:49:27.401Z,2.28
2018-02-02T03:50:27.617Z,2.26
2018-02-02T03:51:27.588Z,2.25
2018-02-02T03:52:27.562Z,2.26
2018-02-02T03:53:27.527Z,2.24
2018-02-02T03:54:27.251Z,2.22
2018-02-02T03:55:27.468Z,2.22
2018-02-02T03:56:27.193Z,2.26
2018-02-02T03:57:27.405Z,2.24
2018-02-02T03:58:27.373Z,2.29
2018-02-02T03:59:27.347Z,2.29
2018-02-02T04:00:27.315Z,2.25
2018-02-02T04:01:27.283Z,2.33
2018-02-02T04:02:27.005Z,2.29
2018-02-02T04:03:27.223Z,2.33
2018-02-02T04:04:26.949Z,2.28
2018-02-02T04:05:26.919Z,2.43
2018-02-02T04:06:27.132Z,2.32
2018-02-02T04:07:27.097Z,2.36
2018-02-02T04:08:27.075Z,2.46
2018-02-02T04:09:26.805Z,2.42
2018-02-02T04:10:27.011Z,2.42
2018-02-02T04:11:26.735Z,2.47
2018-02-02T04:12:26.947Z,2.53
2018-02-02T04:13:26.676Z,2.46
2018-02-02T04:14:26.890Z,2.42
2018-02-02T04:15:26.609Z,2.49
2018-02-02T04:16:26.830Z,2.44
2018-02-02T04:17:26.548Z,2.47
2018-02-02T04:18:26.767Z,2.47
2018-02-02T04:19:26.488Z,2.43
2018-02-02T04:20:26.703Z,2.5
2018-02-02T04:21:26.682Z,2.42
2018-02-02T04:22:26.396Z,2.43
2018-02-02T04:23:26.368Z,2.46
2018-02-02T04:24:26.096Z,2.47
2018-02-02T04:25:26.553Z,2.47
2018-02-02T04:26:26.531Z,2.43
2018-02-02T04:27:26.492Z,2.49
2018-02-02T04:28:26.213Z,2.5
2018-02-02T04:29:26.428Z,2.43
2018-02-02T04:30:25.910Z,2.49
2018-02-02T04:31:26.370Z,2.39
2018-02-02T04:32:26.344Z,2.42
2018-02-02T04:33:25.818Z,2.44
2018-02-02T04:34:25.789Z,2.43
2018-02-02T04:35:26.255Z,2.44
2018-02-02T04:36:26.219Z,2.44
2018-02-02T04:37:26.191Z,2.46
2018-02-02T04:38:25.915Z,2.46
2018-02-02T04:39:26.125Z,2.43
2018-02-02T04:40:25.849Z,2.39
2018-02-02T04:41:25.822Z,2.44
2018-02-02T04:42:26.040Z,2.43
2018-02-02T04:43:26.003Z,2.39
2018-02-02T04:44:25.738Z,2.38
2018-02-02T04:45:25.941Z,2.39
2018-02-02T04:46:25.915Z,2.31
2018-02-02T04:47:25.883Z,2.32
2018-02-02T04:48:25.361Z,2.31
2018-02-02T04:49:25.331Z,2.31
2018-02-02T04:50:25.798Z,2.24
2018-02-02T04:51:25.514Z,2.32
2018-02-02T04:52:25.733Z,2.32
2018-02-02T04:53:25.706Z,2.13
2018-02-02T04:54:25.426Z,2.25
2018-02-02T04:55:25.645Z,2.14
2018-02-02T04:56:25.613Z,2.22
2018-02-02T04:57:25.581Z,2.17
2018-02-02T04:58:25.547Z,2.17
2018-02-02T04:59:25.518Z,2.18
2018-02-02T05:00:25.485Z,2.17
2018-02-02T05:01:25.455Z,2.14
2018-02-02T05:02:25.185Z,2.18
2018-02-02T05:03:25.400Z,2.2
2018-02-02T05:04:25.362Z,2.15
2018-02-02T05:05:25.335Z,2.14
2018-02-02T05:06:25.304Z,2.29
2018-02-02T05:07:25.273Z,2.15
2018-02-02T05:08:25.257Z,2.24
2018-02-02T05:09:24.967Z,2.26
2018-02-02T05:10:25.180Z,2.29
2018-02-02T05:11:24.659Z,2.35
2018-02-02T05:12:25.119Z,2.36
2018-02-02T05:13:24.845Z,2.31
2018-02-02T05:14:24.816Z,2.31
2018-02-02T05:15:24.781Z,2.35
2018-02-02T05:16:24.756Z,2.31
2018-02-02T05:17:24.724Z,2.28
2018-02-02T05:18:24.984Z,2.38
2018-02-02T05:19:24.661Z,2.44
2018-02-02T05:20:24.383Z,2.44
2018-02-02T05:21:24.854Z,2.43
2018-02-02T05:22:24.817Z,2.46
2018-02-02T05:23:24.788Z,2.47
2018-02-02T05:24:24.509Z,2.39
2018-02-02T05:25:24.720Z,2.44
2018-02-02T05:26:24.713Z,2.5
2018-02-02T05:27:24.666Z,2.47
2018-02-02T05:28:24.388Z,2.49
2018-02-02T05:29:24.604Z,2.56
2018-02-02T05:30:24.572Z,2.49
2018-02-02T05:31:24.292Z,2.51
2018-02-02T05:32:24.515Z,2.53
2018-02-02T05:33:24.480Z,2.54
2018-02-02T05:34:24.450Z,2.54
2018-02-02T05:35:24.173Z,2.56
2018-02-02T05:36:24.397Z,2.57
2018-02-02T05:37:24.359Z,2.56
2018-02-02T05:38:24.085Z,2.53
2018-02-02T05:39:24.053Z,2.56
2018-02-02T05:40:24.269Z,2.53
2018-02-02T05:41:24.244Z,2.61
2018-02-02T05:42:24.210Z,2.64
2018-02-02T05:43:24.813Z,2.68
2018-02-02T05:44:24.205Z,2.65
2018-02-02T05:45:24.336Z,2.67
2018-02-02T05:46:24.084Z,2.71
2018-02-02T05:47:23.817Z,2.71
2018-02-02T05:48:23.536Z,2.62
2018-02-02T05:49:23.999Z,2.65
2018-02-02T05:50:23.717Z,2.71
2018-02-02T05:51:23.694Z,2.62
2018-02-02T05:52:23.658Z,2.64
2018-02-02T05:53:23.626Z,2.71
2018-02-02T05:54:23.599Z,2.77
2018-02-02T05:55:23.321Z,2.79
2018-02-02T05:56:23.786Z,2.79
2018-02-02T05:57:23.509Z,2.75
2018-02-02T05:58:23.473Z,2.83
2018-02-02T05:59:23.701Z,2.77
2018-02-02T06:00:23.418Z,2.72
2018-02-02T06:01:23.637Z,2.82
2018-02-02T06:02:23.603Z,2.74
2018-02-02T06:03:23.576Z,2.74
2018-02-02T06:04:23.299Z,2.89
2018-02-02T06:05:23.512Z,2.87
2018-02-02T06:06:23.485Z,2.89
2018-02-02T06:07:23.455Z,2.89
2018-02-02T06:08:23.176Z,2.95
2018-02-02T06:09:23.391Z,3.04
2018-02-02T06:10:23.116Z,2.95
2018-02-02T06:11:23.331Z,3
2018-02-02T06:12:23.309Z,2.97
2018-02-02T06:13:23.267Z,3.1
2018-02-02T06:14:23.237Z,3.01
2018-02-02T06:15:22.721Z,3.11
2018-02-02T06:16:23.181Z,3.11
2018-02-02T06:17:23.152Z,3.18
2018-02-02T06:18:22.879Z,3.19
2018-02-02T06:19:23.097Z,3.22
2018-02-02T06:20:22.812Z,3.14
2018-02-02T06:21:23.037Z,3.14
2018-02-02T06:22:22.754Z,3.08
2018-02-02T06:23:22.721Z,3.25
2018-02-02T06:24:22.939Z,3.26
2018-02-02T06:25:23.070Z,3.23
2018-02-02T06:26:22.889Z,3.28
2018-02-02T06:27:22.899Z,3.32
2018-02-02T06:28:22.817Z,3.25
2018-02-02T06:29:22.543Z,3.31
2018-02-02T06:30:22.758Z,3.36
2018-02-02T06:31:22.732Z,3.32
2018-02-02T06:32:22.455Z,3.34
2018-02-02T06:33:22.670Z,3.4
2018-02-02T06:34:22.733Z,3.36
2018-02-02T06:35:22.612Z,3.42
2018-02-02T06:36:22.585Z,3.4
2018-02-02T06:37:22.552Z,3.5
2018-02-02T06:38:22.521Z,3.32
2018-02-02T06:39:22.255Z,3.4
2018-02-02T06:40:22.468Z,3.32
2018-02-02T06:41:22.439Z,3.41
2018-02-02T06:42:22.408Z,3.4
2018-02-02T06:43:22.371Z,3.41
2018-02-02T06:44:22.342Z,3.34
2018-02-02T06:45:22.065Z,3.42
2018-02-02T06:46:22.281Z,3.45
2018-02-02T06:47:22.252Z,3.45
2018-02-02T06:48:21.981Z,3.44
2018-02-02T06:49:22.196Z,3.47
2018-02-02T06:50:22.165Z,3.5
2018-02-02T06:51:22.186Z,3.56
2018-02-02T06:52:22.105Z,3.53
2018-02-02T06:53:21.827Z,3.59
2018-02-02T06:54:22.044Z,3.59
2018-02-02T06:55:22.016Z,3.56
2018-02-02T06:56:21.745Z,3.6
2018-02-02T06:57:21.957Z,3.63
2018-02-02T06:58:21.930Z,3.62
2018-02-02T06:59:21.896Z,3.6
2018-02-02T07:00:21.872Z,3.62
2018-02-02T07:01:21.838Z,3.68
2018-02-02T07:02:21.567Z,3.62
2018-02-02T07:03:21.287Z,3.62
2018-02-02T07:04:21.750Z,3.63
2018-02-02T07:05:21.723Z,3.62
2018-02-02T07:06:21.442Z,3.7
2018-02-02T07:07:21.415Z,3.68
2018-02-02T07:08:21.383Z,3.76
2018-02-02T07:09:21.602Z,3.78
2018-02-02T07:10:21.571Z,3.74
2018-02-02T07:11:21.555Z,3.8
2018-02-02T07:12:21.516Z,3.86
2018-02-02T07:13:21.489Z,3.74
2018-02-02T07:14:21.207Z,3.8
2018-02-02T07:15:21.421Z,3.74
2018-02-02T07:16:21.397Z,3.81
2018-02-02T07:17:21.120Z,3.86
2018-02-02T07:18:21.088Z,3.91
2018-02-02T07:19:21.061Z,3.88
2018-02-02T07:20:21.031Z,3.86
2018-02-02T07:21:21.248Z,3.92
2018-02-02T07:22:20.970Z,3.83
2018-02-02T07:23:21.192Z,3.87
2018-02-02T07:24:20.917Z,3.8
2018-02-02T07:25:21.131Z,3.81
2018-02-02T07:26:21.105Z,3.86
2018-02-02T07:27:21.074Z,3.95
2018-02-02T07:28:21.050Z,3.86
2018-02-02T07:29:21.017Z,3.83
2018-02-02T07:30:20.766Z,3.96
2018-02-02T07:31:20.955Z,3.98
2018-02-02T07:32:20.925Z,3.92
2018-02-02T07:33:20.895Z,3.98
2018-02-02T07:34:20.866Z,3.98
2018-02-02T07:35:20.843Z,3.84
2018-02-02T07:36:20.806Z,3.94
2018-02-02T07:37:20.776Z,3.91
2018-02-02T07:38:20.504Z,3.96
2018-02-02T07:39:20.482Z,3.92
2018-02-02T07:40:20.443Z,3.87
2018-02-02T07:41:20.659Z,3.91
2018-02-02T07:42:20.634Z,3.88
2018-02-02T07:43:20.603Z,3.95
2018-02-02T07:44:20.638Z,3.95
2018-02-02T07:45:20.304Z,3.95
2018-02-02T07:46:20.022Z,4.01
2018-02-02T07:47:20.481Z,3.95
2018-02-02T07:48:20.212Z,4.02
2018-02-02T07:49:20.183Z,4.04
2018-02-02T07:50:20.399Z,4.06
2018-02-02T07:51:20.370Z,4.04
2018-02-02T07:52:20.339Z,4.05
2018-02-02T07:53:20.314Z,4.01
2018-02-02T07:54:20.278Z,4.08
2018-02-02T07:55:20.255Z,4.06
2018-02-02T07:56:20.229Z,4.05
2018-02-02T07:57:20.192Z,4.1
2018-02-02T07:58:19.921Z,4.13
2018-02-02T07:59:20.136Z,4.06
2018-02-02T08:00:20.592Z,4.06
2018-02-02T08:01:20.078Z,4.08
2018-02-02T08:02:20.049Z,4.04
2018-02-02T08:03:20.071Z,4.04
2018-02-02T08:04:19.988Z,4.08
2018-02-02T08:05:19.964Z,4.04
2018-02-02T08:06:19.722Z,4.05
2018-02-02T08:07:20.008Z,4.1
2018-02-02T08:08:19.874Z,4.14
2018-02-02T08:09:19.847Z,4.06
2018-02-02T08:10:19.817Z,4.13
2018-02-02T08:11:19.788Z,4.05
2018-02-02T08:12:19.939Z,4.05
2018-02-02T08:13:20.169Z,4.05
2018-02-02T08:14:19.540Z,4.01
2018-02-02T08:15:19.769Z,4.14
2018-02-02T08:16:19.394Z,4.1
2018-02-02T08:17:19.369Z,4.06
2018-02-02T08:18:19.584Z,4.04
2018-02-02T08:19:19.064Z,4.06
2018-02-02T08:20:19.525Z,4.05
2018-02-02T08:21:19.500Z,4.04
2018-02-02T08:22:19.619Z,4.06
2018-02-02T08:23:19.190Z,4.1
2018-02-02T08:24:19.165Z,4.17
2018-02-02T08:25:19.382Z,4.13
2018-02-02T08:26:19.357Z,4.08
2018-02-02T08:27:19.325Z,4.14
2018-02-02T08:28:19.441Z,4.22
2018-02-02T08:29:19.415Z,4.19
2018-02-02T08:30:19.319Z,4.16
2018-02-02T08:31:19.459Z,4.1
2018-02-02T08:32:19.180Z,4.14
2018-02-02T08:33:18.904Z,4.1
2018-02-02T08:34:19.295Z,4.13
2018-02-02T08:35:18.849Z,4.2
2018-02-02T08:36:19.073Z,4.12
2018-02-02T08:37:18.789Z,4.3
2018-02-02T08:38:19.005Z,4.24
2018-02-02T08:39:18.982Z,4.22
2018-02-02T08:40:18.958Z,4.28
2018-02-02T08:41:18.682Z,4.3
2018-02-02T08:42:18.404Z,4.17
2018-02-02T08:43:18.860Z,4.22
2018-02-02T08:44:18.836Z,4.3
2018-02-02T08:45:18.809Z,4.22
2018-02-02T08:46:18.775Z,4.28
2018-02-02T08:47:18.751Z,4.19
2018-02-02T08:48:18.725Z,4.24
2018-02-02T08:49:18.698Z,4.24
2018-02-02T08:50:18.870Z,4.3
2018-02-02T08:51:18.792Z,4.31
2018-02-02T08:52:19.117Z,4.26
2018-02-02T08:53:18.456Z,4.28
2018-02-02T08:54:18.550Z,4.28
2018-02-02T08:55:18.524Z,4.32
2018-02-02T08:56:18.536Z,4.32
2018-02-02T08:57:18.589Z,4.26
2018-02-02T08:58:18.445Z,4.32
2018-02-02T08:59:18.258Z,4.37
2018-02-02T09:00:18.132Z,4.4
2018-02-02T09:01:18.351Z,4.37
2018-02-02T09:02:18.305Z,4.4
2018-02-02T09:03:18.049Z,4.41
2018-02-02T09:04:18.020Z,4.37
2018-02-02T09:05:18.240Z,4.37
2018-02-02T09:06:17.968Z,4.42
2018-02-02T09:07:17.935Z,4.5
2018-02-02T09:08:18.155Z,4.56
2018-02-02T09:09:18.125Z,4.41
2018-02-02T09:10:18.096Z,4.48
2018-02-02T09:11:18.382Z,4.48
2018-02-02T09:12:18.043Z,4.53
2018-02-02T09:13:18.015Z,4.48
2018-02-02T09:14:17.982Z,4.48
2018-02-02T09:15:17.965Z,4.42
2018-02-02T09:16:17.928Z,4.4
2018-02-02T09:17:17.899Z,4.35
2018-02-02T09:18:17.872Z,4.35
2018-02-02T09:19:17.842Z,4.38
2018-02-02T09:20:18.124Z,4.34
2018-02-02T09:21:17.787Z,4.32
2018-02-02T09:22:17.759Z,4.32
2018-02-02T09:23:17.778Z,4.32
2018-02-02T09:24:17.707Z,4.31
2018-02-02T09:25:17.673Z,4.31
2018-02-02T09:26:17.646Z,4.34
2018-02-02T09:27:17.621Z,4.35
2018-02-02T09:28:17.806Z,4.37
2018-02-02T09:29:17.568Z,4.42
2018-02-02T09:30:17.433Z,4.37
2018-02-02T09:31:17.606Z,4.45
2018-02-02T09:32:17.678Z,4.42
2018-02-02T09:33:17.307Z,4.4
2018-02-02T09:34:17.192Z,4.42
2018-02-02T09:35:17.394Z,4.34
2018-02-02T09:36:17.368Z,4.41
2018-02-02T09:37:17.431Z,4.41
2018-02-02T09:38:17.064Z,4.45
2018-02-02T09:39:17.493Z,4.42
2018-02-02T09:40:17.194Z,4.42
2018-02-02T09:41:16.982Z,4.45
2018-02-02T09:42:16.951Z,4.41
2018-02-02T09:43:17.168Z,4.41
2018-02-02T09:44:17.137Z,4.38
2018-02-02T09:45:16.915Z,4.35
2018-02-02T09:46:17.084Z,4.37
2018-02-02T09:47:17.056Z,4.32
2018-02-02T09:48:17.079Z,4.37
2018-02-02T09:49:17.044Z,4.35
2018-02-02T09:50:17.035Z,4.3
2018-02-02T09:51:16.939Z,4.31
2018-02-02T09:52:16.920Z,4.3
2018-02-02T09:53:16.887Z,4.32
2018-02-02T09:54:16.857Z,4.34
2018-02-02T09:55:16.831Z,4.32
2018-02-02T09:56:16.803Z,4.32
2018-02-02T09:57:16.280Z,4.28
2018-02-02T09:58:16.499Z,4.23
2018-02-02T09:59:16.713Z,4.32
2018-02-02T10:00:16.688Z,4.26
2018-02-02T10:01:16.662Z,4.23
2018-02-02T10:02:16.633Z,4.26
2018-02-02T10:03:16.602Z,4.23
2018-02-02T10:04:16.324Z,4.2
2018-02-02T10:05:16.554Z,4.3
2018-02-02T10:06:16.517Z,4.31
2018-02-02T10:07:16.488Z,4.28
2018-02-02T10:08:16.213Z,4.34
2018-02-02T10:09:16.429Z,4.34
2018-02-02T10:10:16.403Z,4.35
2018-02-02T10:11:16.380Z,4.3
2018-02-02T10:12:16.103Z,4.3
2018-02-02T10:13:15.824Z,4.37
2018-02-02T10:14:16.049Z,4.22
2018-02-02T10:15:16.258Z,4.31
2018-02-02T10:16:16.239Z,4.31
2018-02-02T10:17:15.710Z,4.28
2018-02-02T10:18:15.934Z,4.28
2018-02-02T10:19:16.156Z,4.32
2018-02-02T10:20:15.876Z,4.31
2018-02-02T10:21:16.089Z,4.34
2018-02-02T10:22:15.819Z,4.31
2018-02-02T10:23:15.547Z,4.28
2018-02-02T10:24:16.006Z,4.3
2018-02-02T10:25:15.977Z,4.26
2018-02-02T10:26:15.701Z,4.23
2018-02-02T10:27:15.679Z,4.17
2018-02-02T10:28:15.895Z,4.28
2018-02-02T10:29:15.869Z,4.22
2018-02-02T10:30:15.839Z,4.22
2018-02-02T10:31:15.561Z,4.31
2018-02-02T10:32:15.534Z,4.28
2018-02-02T10:33:15.756Z,4.31
2018-02-02T10:34:15.719Z,4.23
2018-02-02T10:35:15.449Z,4.26
2018-02-02T10:36:15.666Z,4.26
2018-02-02T10:37:15.702Z,4.28
2018-02-02T10:38:15.613Z,4.31
2018-02-02T10:39:15.586Z,4.34
2018-02-02T10:40:15.555Z,4.38
2018-02-02T10:41:15.526Z,4.35
2018-02-02T10:42:15.498Z,4.37
2018-02-02T10:43:15.469Z,4.42
2018-02-02T10:44:15.198Z,4.45
2018-02-02T10:45:15.418Z,4.45
2018-02-02T10:46:15.486Z,4.5
2018-02-02T10:47:15.361Z,4.58
2018-02-02T10:48:15.332Z,4.55
2018-02-02T10:49:15.058Z,4.53
2018-02-02T10:50:15.029Z,4.5
2018-02-02T10:51:15.248Z,4.45
2018-02-02T10:52:14.978Z,4.42
2018-02-02T10:53:15.208Z,4.45
2018-02-02T10:54:15.167Z,4.42
2018-02-02T10:55:15.139Z,4.32
2018-02-02T10:56:15.113Z,4.4
2018-02-02T10:57:15.081Z,4.35
2018-02-02T10:58:14.807Z,4.41
2018-02-02T10:59:14.531Z,4.38
2018-02-02T11:00:14.997Z,4.32
2018-02-02T11:01:14.726Z,4.28
2018-02-02T11:02:14.944Z,4.3
2018-02-02T11:03:14.924Z,4.31
2018-02-02T11:04:14.888Z,4.31
2018-02-02T11:05:14.613Z,4.23
2018-02-02T11:06:14.831Z,4.34
2018-02-02T11:07:14.559Z,4.41
2018-02-02T11:08:14.533Z,4.41
2018-02-02T11:09:14.747Z,4.41
2018-02-02T11:10:14.724Z,4.48
2018-02-02T11:11:14.700Z,4.42
2018-02-02T11:12:14.664Z,4.45
2018-02-02T11:13:14.643Z,4.4
2018-02-02T11:14:14.360Z,4.37
2018-02-02T11:15:14.335Z,4.41
2018-02-02T11:16:14.307Z,4.41
2018-02-02T11:17:14.281Z,4.44
2018-02-02T11:18:14.494Z,4.37
2018-02-02T11:19:14.227Z,4.41
2018-02-02T11:20:14.194Z,4.38
2018-02-02T11:21:14.172Z,4.37
2018-02-02T11:22:14.385Z,4.49
2018-02-02T11:23:14.355Z,4.45
2018-02-02T11:24:14.084Z,4.53
2018-02-02T11:25:14.056Z,4.55
2018-02-02T11:26:14.273Z,4.52
2018-02-02T11:27:13.999Z,4.58
2018-02-02T11:28:14.323Z,4.58
2018-02-02T11:29:13.943Z,4.5
2018-02-02T11:30:13.917Z,4.58
2018-02-02T11:31:14.135Z,4.42
2018-02-02T11:32:13.861Z,4.49
2018-02-02T11:33:14.080Z,4.41
2018-02-02T11:34:14.047Z,4.37
2018-02-02T11:35:14.019Z,4.38
2018-02-02T11:36:13.993Z,4.41
2018-02-02T11:37:13.720Z,4.37
2018-02-02T11:38:13.755Z,4.44
2018-02-02T11:39:13.960Z,4.44
2018-02-02T11:40:13.875Z,4.45
2018-02-02T11:41:13.851Z,4.41
2018-02-02T11:42:13.823Z,4.5
2018-02-02T11:43:13.796Z,4.5
2018-02-02T11:44:13.763Z,4.5
2018-02-02T11:45:13.496Z,4.55
2018-02-02T11:46:13.711Z,4.53
2018-02-02T11:47:13.439Z,4.58
2018-02-02T11:48:13.409Z,4.62
2018-02-02T11:49:13.384Z,4.56
2018-02-02T11:50:13.600Z,4.59
2018-02-02T11:51:13.324Z,4.56
2018-02-02T11:52:13.587Z,4.56
2018-02-02T11:53:13.522Z,4.55
2018-02-02T11:54:13.491Z,4.68
2018-02-02T11:55:13.461Z,4.66
2018-02-02T11:56:13.435Z,4.75
2018-02-02T11:57:13.415Z,4.7
2018-02-02T11:58:13.375Z,4.74
2018-02-02T11:59:13.348Z,4.78
2018-02-02T12:00:13.323Z,4.7
2018-02-02T12:01:13.053Z,4.7
2018-02-02T12:02:13.748Z,4.84
2018-02-02T12:03:12.994Z,4.8
2018-02-02T12:04:12.966Z,4.8
2018-02-02T12:05:13.192Z,4.75
2018-02-02T12:06:12.909Z,4.8
2018-02-02T12:07:13.130Z,4.73
2018-02-02T12:08:12.855Z,4.71
2018-02-02T12:09:13.074Z,4.74
2018-02-02T12:10:12.806Z,4.7
2018-02-02T12:11:13.018Z,4.73
2018-02-02T12:12:12.746Z,4.68
2018-02-02T12:13:12.969Z,4.75
2018-02-02T12:14:12.937Z,4.63
2018-02-02T12:15:12.956Z,4.8
2018-02-02T12:16:12.879Z,4.73
2018-02-02T12:17:12.861Z,4.68
2018-02-02T12:18:12.825Z,4.7
2018-02-02T12:19:12.796Z,4.7
2018-02-02T12:20:12.776Z,4.75
2018-02-02T12:21:12.802Z,4.75
2018-02-02T12:22:12.721Z,4.73
2018-02-02T12:23:12.690Z,4.73
2018-02-02T12:24:12.659Z,4.75
2018-02-02T12:25:12.631Z,4.84
2018-02-02T12:26:12.605Z,4.87
2018-02-02T12:27:12.581Z,4.94
2018-02-02T12:28:12.305Z,5
2018-02-02T12:29:12.525Z,4.94
2018-02-02T12:30:12.495Z,4.96
2018-02-02T12:31:12.525Z,4.93
2018-02-02T12:32:12.193Z,4.96
2018-02-02T12:33:12.465Z,5.02
2018-02-02T12:34:12.450Z,5.05
2018-02-02T12:35:12.357Z,5.07
2018-02-02T12:36:12.331Z,5.04
2018-02-02T12:37:12.301Z,5.08
2018-02-02T12:38:12.275Z,5.18
2018-02-02T12:39:12.250Z,5.08
2018-02-02T12:40:11.975Z,5.12
2018-02-02T12:41:12.275Z,5.14
2018-02-02T12:42:12.170Z,5.26
2018-02-02T12:43:12.193Z,5.33
2018-02-02T12:44:11.862Z,5.3
2018-02-02T12:45:11.837Z,5.32
2018-02-02T12:46:12.065Z,5.32
2018-02-02T12:47:11.783Z,5.32
2018-02-02T12:48:12.055Z,5.28
2018-02-02T12:49:11.975Z,5.3
2018-02-02T12:50:11.702Z,5.29
2018-02-02T12:51:11.922Z,5.28
2018-02-02T12:52:11.403Z,5.29
2018-02-02T12:53:11.872Z,5.3
2018-02-02T12:54:11.843Z,5.23
2018-02-02T12:55:11.817Z,5.21
2018-02-02T12:56:11.293Z,5.2
2018-02-02T12:57:11.759Z,5.14
2018-02-02T12:58:11.731Z,5.11
2018-02-02T12:59:11.705Z,5.14
2018-02-02T13:00:11.680Z,5.14
2018-02-02T13:01:11.403Z,5.17
2018-02-02T13:02:11.383Z,5.17
2018-02-02T13:03:11.349Z,5.12
2018-02-02T13:04:11.077Z,5.17
2018-02-02T13:05:11.294Z,5.2
2018-02-02T13:06:11.516Z,5.15
2018-02-02T13:07:11.238Z,5.17
2018-02-02T13:08:11.467Z,5.14
2018-02-02T13:09:11.433Z,5.17
2018-02-02T13:10:11.159Z,5.1
2018-02-02T13:11:11.376Z,5.11
2018-02-02T13:12:11.352Z,5.1
2018-02-02T13:13:11.328Z,5.07
2018-02-02T13:14:11.058Z,5.08
2018-02-02T13:15:11.270Z,4.99
2018-02-02T13:16:11.240Z,5
2018-02-02T13:17:11.215Z,5.05
2018-02-02T13:18:10.937Z,5.05
2018-02-02T13:19:11.164Z,5.04
2018-02-02T13:20:11.125Z,5.1
2018-02-02T13:21:11.099Z,5.08